Time;durP1;ratioP1;P1;durP2;ratioP2;P2;SDS_P1;SDS_P2;PMS_P1;PMS_P2;Temp;Humidity;BMP_temperature;BMP_pressure;BME280_temperature;BME280_humidity;BME280_pressure;Samples;Min_cycle;Max_cycle;Signal;HPM_P1;HPM_P2
2024/01/03 00:00:57;;;;;;;;;;;;;;;19.50;50.05;98287.56;2050334;28;6318;-68
2024/01/03 00:02:00;;;;;;;;;;;;;;;19.49;50.10;98291.84;2059833;28;2223;-68
2024/01/03 00:03:01;;;;;;;;;;;;;;;19.50;50.00;98289.72;2057042;28;2342;-68
2024/01/03 00:04:02;;;;;;;;;;;;;;;19.50;50.08;98286.84;2059512;28;1724;-68
2024/01/03 00:05:04;;;;;;;;;;;;;;;19.50;50.04;98281.09;2057928;28;2196;-68
2024/01/03 00:06:05;;;;;;;;;;;;;;;19.49;49.99;98280.34;2059185;28;2156;-68
2024/01/03 00:07:07;;;;;;;;;;;;;;;19.48;49.94;98281.81;2060736;28;2149;-68
2024/01/03 00:08:09;;;;;;;;;;;;;;;19.49;49.97;98286.09;2058609;28;2266;-68
2024/01/03 00:09:11;;;;;;;;;;;;;;;19.49;50.08;98279.63;2059836;28;2183;-68
2024/01/03 00:10:19;;;;;;;;;;;;;;;19.48;50.00;98281.81;2059050;28;2295;-68
2024/01/03 00:11:27;;;;;;;;;;;;;;;19.49;50.00;98279.63;2062039;28;2255;-68
2024/01/03 00:12:29;;;;;;;;;;;;;;;19.48;50.08;98276.06;2058402;28;2258;-68
2024/01/03 00:13:33;;;;;;;;;;;;;;;19.47;50.09;98271.75;2059504;28;2568;-68
2024/01/03 00:14:34;;;;;;;;;;;;;;;19.48;49.91;98270.31;2058655;28;2277;-68
2024/01/03 00:15:36;;;;;;;;;;;;;;;19.47;50.21;98280.38;2058143;28;2231;-68
2024/01/03 00:16:38;;;;;;;;;;;;;;;19.48;49.99;98278.22;2050985;28;2252;-68
2024/01/03 00:17:42;;;;;;;;;;;;;;;19.46;50.08;98271.00;2052582;28;2092;-68
2024/01/03 00:18:50;;;;;;;;;;;;;;;19.47;50.08;98271.75;2053208;28;1615;-68
2024/01/03 00:19:54;;;;;;;;;;;;;;;19.47;50.04;98280.38;2051692;28;2150;-68
2024/01/03 00:20:56;;;;;;;;;;;;;;;19.47;50.01;98271.75;2057710;28;2204;-67
2024/01/03 00:21:58;;;;;;;;;;;;;;;19.46;49.91;98276.75;2058180;28;1631;-68
2024/01/03 00:23:03;;;;;;;;;;;;;;;19.47;49.99;98277.50;2055895;28;2482;-68
2024/01/03 00:24:04;;;;;;;;;;;;;;;19.46;50.08;98276.75;2057929;28;2251;-68
2024/01/03 00:25:06;;;;;;;;;;;;;;;19.47;50.02;98271.75;2059729;28;2220;-68
2024/01/03 00:26:07;;;;;;;;;;;;;;;19.47;50.06;98274.63;2056901;28;2172;-68
2024/01/03 00:27:09;;;;;;;;;;;;;;;19.47;50.05;98274.63;2059611;28;1869;-69
2024/01/03 00:28:10;;;;;;;;;;;;;;;19.46;50.05;98259.53;2060064;28;2255;-68
2024/01/03 00:29:24;;;;;;;;;;;;;;;19.46;49.94;98267.44;2052710;28;2406;-68
2024/01/03 00:30:25;;;;;;;;;;;;;;;19.46;50.06;98270.28;2052735;28;6185;-68
2024/01/03 00:31:37;;;;;;;;;;;;;;;19.45;49.99;98263.84;2059958;28;2251;-68
2024/01/03 00:32:38;;;;;;;;;;;;;;;19.46;50.06;98264.56;2060087;28;2169;-67
2024/01/03 00:33:47;;;;;;;;;;;;;;;19.45;50.00;98266.00;2059864;28;1594;-68
2024/01/03 00:34:49;;;;;;;;;;;;;;;19.46;50.07;98268.16;2060945;28;2148;-68
2024/01/03 00:35:51;;;;;;;;;;;;;;;19.45;50.03;98266.00;2061068;28;1584;-68
2024/01/03 00:36:56;;;;;;;;;;;;;;;19.45;49.98;98263.13;2051993;28;2220;-68
2024/01/03 00:37:57;;;;;;;;;;;;;;;19.45;50.04;98263.13;2054536;28;1600;-67
2024/01/03 00:38:58;;;;;;;;;;;;;;;19.45;49.99;98260.25;2058533;28;2303;-68
2024/01/03 00:40:00;;;;;;;;;;;;;;;19.45;50.12;98263.13;2060642;28;2388;-68
2024/01/03 00:41:02;;;;;;;;;;;;;;;19.44;50.06;98259.50;2058032;28;1697;-68
2024/01/03 00:42:04;;;;;;;;;;;;;;;19.45;49.90;98260.97;2057560;28;2249;-68
2024/01/03 00:43:05;;;;;;;;;;;;;;;19.44;50.01;98259.50;2057959;28;2273;-67
2024/01/03 00:44:07;;;;;;;;;;;;;;;19.45;50.07;98258.09;2057879;28;1880;-68
2024/01/03 00:45:08;;;;;;;;;;;;;;;19.45;50.08;98257.38;2060319;28;2402;-68
2024/01/03 00:46:09;;;;;;;;;;;;;;;19.45;50.26;98254.53;2057849;28;2554;-68
2024/01/03 00:47:11;;;;;;;;;;;;;;;19.45;50.09;98263.13;2059312;28;1639;-68
2024/01/03 00:48:12;;;;;;;;;;;;;;;19.44;50.12;98250.91;2056741;28;2208;-68
2024/01/03 00:49:14;;;;;;;;;;;;;;;19.45;50.07;98263.84;2057335;28;2335;-68
2024/01/03 00:50:16;;;;;;;;;;;;;;;19.45;49.99;98260.25;2056178;28;2039;-68
2024/01/03 00:51:18;;;;;;;;;;;;;;;19.45;50.08;98263.13;2060551;28;1864;-68
2024/01/03 00:52:20;;;;;;;;;;;;;;;19.45;49.86;98263.84;2057772;28;2205;-68
2024/01/03 00:53:21;;;;;;;;;;;;;;;19.44;49.98;98261.66;2058852;28;2240;-68
2024/01/03 00:54:23;;;;;;;;;;;;;;;19.44;50.12;98261.66;2059329;28;2271;-68
2024/01/03 00:55:24;;;;;;;;;;;;;;;19.44;50.05;98268.13;2057094;28;2553;-68
2024/01/03 00:56:27;;;;;;;;;;;;;;;19.43;50.09;98258.09;2060449;28;2228;-67
2024/01/03 00:57:28;;;;;;;;;;;;;;;19.43;50.11;98254.50;2061924;28;1629;-68
2024/01/03 00:58:29;;;;;;;;;;;;;;;19.43;50.13;98255.22;2060597;28;1712;-67
2024/01/03 00:59:34;;;;;;;;;;;;;;;19.43;50.17;98266.69;2060392;28;2179;-68
2024/01/03 01:00:36;;;;;;;;;;;;;;;19.43;49.96;98265.97;2061941;28;6180;-68
2024/01/03 01:01:38;;;;;;;;;;;;;;;19.44;50.08;98267.41;2054997;28;2392;-67
2024/01/03 01:02:39;;;;;;;;;;;;;;;19.43;49.96;98260.22;2061266;28;2110;-68
2024/01/03 01:03:41;;;;;;;;;;;;;;;19.43;50.12;98268.84;2058600;28;2463;-67
2024/01/03 01:04:42;;;;;;;;;;;;;;;19.43;50.08;98266.69;2057700;28;1662;-68
2024/01/03 01:05:44;;;;;;;;;;;;;;;19.43;50.19;98254.50;2057153;28;2180;-68
2024/01/03 01:06:45;;;;;;;;;;;;;;;19.43;50.07;98260.22;2058141;28;1651;-68
2024/01/03 01:07:47;;;;;;;;;;;;;;;19.42;50.14;98273.13;2057723;28;2335;-67
2024/01/03 01:08:49;;;;;;;;;;;;;;;19.43;49.97;98275.31;2060732;28;2070;-67
2024/01/03 01:09:51;;;;;;;;;;;;;;;19.42;50.00;98276.00;2059307;28;2582;-68
2024/01/03 01:10:52;;;;;;;;;;;;;;;19.41;50.08;98263.81;2063986;28;1981;-68
2024/01/03 01:11:53;;;;;;;;;;;;;;;19.42;50.04;98264.50;2057554;28;1521;-68
2024/01/03 01:12:56;;;;;;;;;;;;;;;19.41;50.15;98263.09;2060722;28;2148;-68
2024/01/03 01:13:57;;;;;;;;;;;;;;;19.41;50.14;98266.66;2061849;28;2197;-68
2024/01/03 01:15:00;;;;;;;;;;;;;;;19.42;49.97;98276.00;2063806;28;2201;-68
2024/01/03 01:16:02;;;;;;;;;;;;;;;19.41;50.17;98274.56;2062898;28;2231;-68
2024/01/03 01:17:03;;;;;;;;;;;;;;;19.41;50.00;98268.81;2056973;28;1650;-67
2024/01/03 01:18:05;;;;;;;;;;;;;;;19.41;50.13;98277.44;2062857;28;1626;-68
2024/01/03 01:19:07;;;;;;;;;;;;;;;19.40;50.15;98287.44;2057459;28;2159;-68
2024/01/03 01:20:09;;;;;;;;;;;;;;;19.40;49.85;98284.59;2057417;28;1813;-68
2024/01/03 01:21:10;;;;;;;;;;;;;;;19.40;50.15;98273.84;2056557;28;2305;-68
2024/01/03 01:22:12;;;;;;;;;;;;;;;19.41;50.08;98280.31;2057523;28;1654;-68
2024/01/03 01:23:13;;;;;;;;;;;;;;;19.41;50.08;98274.56;2060257;28;2356;-68
2024/01/03 01:24:15;;;;;;;;;;;;;;;19.40;49.96;98279.59;2061824;28;2471;-68
2024/01/03 01:25:17;;;;;;;;;;;;;;;19.40;49.99;98293.19;2059575;28;2218;-68
2024/01/03 01:26:19;;;;;;;;;;;;;;;19.40;50.00;98291.06;2066379;28;1885;-68
2024/01/03 01:27:20;;;;;;;;;;;;;;;19.40;50.08;98281.72;2061612;28;1754;-68
2024/01/03 01:28:21;;;;;;;;;;;;;;;19.39;50.05;98283.88;2062343;28;1750;-68
2024/01/03 01:29:23;;;;;;;;;;;;;;;19.39;50.02;98288.88;2058237;28;2195;-68
2024/01/03 01:30:24;;;;;;;;;;;;;;;19.39;50.02;98288.88;2060733;28;6006;-68
2024/01/03 01:31:26;;;;;;;;;;;;;;;19.39;49.96;98291.75;2061984;28;2153;-68
2024/01/03 01:32:27;;;;;;;;;;;;;;;19.39;50.03;98289.59;2062583;28;1584;-68
2024/01/03 01:33:28;;;;;;;;;;;;;;;19.39;50.05;98291.75;2061187;28;1908;-68
2024/01/03 01:34:30;;;;;;;;;;;;;;;19.40;50.01;98287.44;2061774;28;2310;-68
2024/01/03 01:35:31;;;;;;;;;;;;;;;19.39;50.02;98300.38;2060726;28;2273;-67
2024/01/03 01:36:33;;;;;;;;;;;;;;;19.39;49.95;98291.75;2060397;28;1815;-68
2024/01/03 01:37:34;;;;;;;;;;;;;;;19.39;50.06;98288.88;2062017;28;1524;-68
2024/01/03 01:38:36;;;;;;;;;;;;;;;19.36;50.16;98291.03;2059854;28;2071;-68
2024/01/03 01:39:37;;;;;;;;;;;;;;;19.39;50.08;98289.59;2062975;28;1754;-67
2024/01/03 01:40:38;;;;;;;;;;;;;;;19.39;50.05;98294.63;2063776;28;1647;-68
2024/01/03 01:41:40;;;;;;;;;;;;;;;19.39;50.04;98283.16;2059413;28;2224;-68
2024/01/03 01:42:42;;;;;;;;;;;;;;;19.39;50.14;98291.75;2055450;28;2222;-68
2024/01/03 01:43:43;;;;;;;;;;;;;;;19.36;50.02;98291.03;2055637;28;2568;-68
2024/01/03 01:44:45;;;;;;;;;;;;;;;19.37;50.03;98297.47;2062770;28;1709;-67
2024/01/03 01:45:46;;;;;;;;;;;;;;;19.37;49.90;98292.44;2060173;28;2325;-67
2024/01/03 01:46:48;;;;;;;;;;;;;;;19.37;49.95;98286.00;2059255;28;2177;-68
2024/01/03 01:47:49;;;;;;;;;;;;;;;19.36;49.97;98299.63;2058945;28;1654;-68
2024/01/03 01:48:51;;;;;;;;;;;;;;;19.37;50.01;98291.75;2060338;28;2203;-68
2024/01/03 01:49:52;;;;;;;;;;;;;;;19.37;49.88;98291.75;2057583;28;2413;-68
2024/01/03 01:50:54;;;;;;;;;;;;;;;19.36;49.88;98284.56;2060195;28;1910;-68
2024/01/03 01:51:55;;;;;;;;;;;;;;;19.36;49.88;98290.31;2060395;28;2522;-67
2024/01/03 01:52:58;;;;;;;;;;;;;;;19.36;49.87;98288.16;2058979;28;2171;-67
2024/01/03 01:54:00;;;;;;;;;;;;;;;19.36;49.97;98291.03;2060653;28;2539;-68
2024/01/03 01:55:02;;;;;;;;;;;;;;;19.35;49.95;98295.31;2061102;28;2536;-68
2024/01/03 01:56:03;;;;;;;;;;;;;;;19.36;49.97;98290.31;2061158;28;2293;-68
2024/01/03 01:57:05;;;;;;;;;;;;;;;19.37;49.97;98297.47;2060766;28;2215;-68
2024/01/03 01:58:07;;;;;;;;;;;;;;;19.37;49.93;98298.19;2058179;28;1470;-68
2024/01/03 01:59:08;;;;;;;;;;;;;;;19.36;49.98;98305.38;2061073;28;2349;-68
2024/01/03 02:00:10;;;;;;;;;;;;;;;19.37;49.85;98303.22;2056489;28;6061;-67
2024/01/03 02:01:11;;;;;;;;;;;;;;;19.35;49.90;98289.56;2061881;28;1552;-68
2024/01/03 02:02:13;;;;;;;;;;;;;;;19.35;49.91;98306.78;2059801;28;2330;-68
2024/01/03 02:03:14;;;;;;;;;;;;;;;19.36;49.69;98301.78;2057730;28;2245;-68
2024/01/03 02:04:16;;;;;;;;;;;;;;;19.35;49.74;98301.03;2064799;28;1806;-68
2024/01/03 02:05:18;;;;;;;;;;;;;;;19.35;49.97;98300.31;2058627;28;2250;-68
2024/01/03 02:06:19;;;;;;;;;;;;;;;19.35;49.98;98294.59;2061665;28;1584;-67
2024/01/03 02:07:21;;;;;;;;;;;;;;;19.35;49.88;98300.31;2062433;28;2216;-67
2024/01/03 02:08:23;;;;;;;;;;;;;;;19.35;49.95;98291.72;2058551;28;2356;-68
2024/01/03 02:09:24;;;;;;;;;;;;;;;19.35;49.95;98301.03;2058913;28;2167;-68
2024/01/03 02:10:26;;;;;;;;;;;;;;;19.35;49.97;98291.72;2060198;28;2545;-68
2024/01/03 02:11:27;;;;;;;;;;;;;;;19.35;49.98;98303.19;2062545;28;1973;-68
2024/01/03 02:12:28;;;;;;;;;;;;;;;19.35;49.96;98294.59;2060620;28;2233;-68
2024/01/03 02:13:30;;;;;;;;;;;;;;;19.36;49.94;98301.78;2061684;28;2300;-68
2024/01/03 02:14:31;;;;;;;;;;;;;;;19.35;49.93;98312.50;2060555;28;1590;-67
2024/01/03 02:15:33;;;;;;;;;;;;;;;19.34;50.00;98305.34;2059613;28;2264;-68
2024/01/03 02:16:34;;;;;;;;;;;;;;;19.34;49.90;98308.22;2064518;28;1670;-68
2024/01/03 02:17:37;;;;;;;;;;;;;;;19.34;49.90;98304.63;2060708;28;2266;-67
2024/01/03 02:18:39;;;;;;;;;;;;;;;19.34;49.95;98305.34;2060870;28;2279;-68
2024/01/03 02:19:40;;;;;;;;;;;;;;;19.34;49.89;98304.63;2059911;28;2276;-68
2024/01/03 02:20:42;;;;;;;;;;;;;;;19.33;50.01;98298.16;2060867;28;1655;-68
2024/01/03 02:21:43;;;;;;;;;;;;;;;19.34;49.93;98310.38;2063773;28;1538;-68
2024/01/03 02:22:45;;;;;;;;;;;;;;;19.33;49.99;98298.16;2061032;28;2193;-67
2024/01/03 02:23:46;;;;;;;;;;;;;;;19.34;50.01;98293.16;2059706;28;2366;-68
2024/01/03 02:24:48;;;;;;;;;;;;;;;19.33;49.91;98294.56;2060533;28;2216;-67
2024/01/03 02:25:49;;;;;;;;;;;;;;;19.34;49.90;98298.88;2058359;28;2221;-68
2024/01/03 02:26:50;;;;;;;;;;;;;;;19.32;50.04;98285.25;2060346;28;2579;-68
2024/01/03 02:27:52;;;;;;;;;;;;;;;19.33;49.95;98297.44;2056669;28;1675;-68
2024/01/03 02:28:53;;;;;;;;;;;;;;;19.33;50.00;98297.44;2057462;28;1533;-68
2024/01/03 02:29:55;;;;;;;;;;;;;;;19.33;49.98;98285.94;2058680;28;2198;-68
2024/01/03 02:30:56;;;;;;;;;;;;;;;19.33;49.85;98303.88;2057661;28;5998;-68
2024/01/03 02:31:58;;;;;;;;;;;;;;;19.33;49.82;98303.16;2061468;28;1971;-68
2024/01/03 02:32:59;;;;;;;;;;;;;;;19.32;49.82;98307.47;2062614;28;1640;-68
2024/01/03 02:34:01;;;;;;;;;;;;;;;19.31;49.99;98294.53;2060000;28;2318;-67
2024/01/03 02:35:04;;;;;;;;;;;;;;;19.31;49.90;98295.28;2059979;28;1596;-68
2024/01/03 02:36:06;;;;;;;;;;;;;;;19.32;49.95;98301.72;2058205;28;2176;-68
2024/01/03 02:37:08;;;;;;;;;;;;;;;19.32;49.96;98301.72;2058602;28;2067;-68
2024/01/03 02:38:09;;;;;;;;;;;;;;;19.32;49.88;98298.88;2063336;28;1609;-68
2024/01/03 02:39:11;;;;;;;;;;;;;;;19.32;49.90;98296.00;2060317;28;1611;-68
2024/01/03 02:40:12;;;;;;;;;;;;;;;19.32;49.76;98290.97;2061729;28;2286;-68
2024/01/03 02:41:14;;;;;;;;;;;;;;;19.32;49.98;98304.59;2061255;28;1857;-68
2024/01/03 02:42:15;;;;;;;;;;;;;;;19.31;49.94;98295.28;2054949;28;2290;-68
2024/01/03 02:43:17;;;;;;;;;;;;;;;19.31;49.93;98306.00;2062048;28;2053;-68
2024/01/03 02:44:20;;;;;;;;;;;;;;;19.31;49.95;98300.28;2061882;28;2339;-68
2024/01/03 02:45:21;;;;;;;;;;;;;;;19.31;49.67;98312.50;2059408;28;2304;-67
2024/01/03 02:46:23;;;;;;;;;;;;;;;19.31;49.97;98306.00;2060869;28;2160;-68
2024/01/03 02:47:24;;;;;;;;;;;;;;;19.31;49.87;98306.75;2061209;28;1818;-68
2024/01/03 02:48:26;;;;;;;;;;;;;;;19.31;50.01;98306.00;2062337;28;1779;-68
2024/01/03 02:49:27;;;;;;;;;;;;;;;19.30;49.93;98322.50;2062760;28;2203;-68
2024/01/03 02:50:29;;;;;;;;;;;;;;;19.31;49.92;98314.63;2061814;28;1971;-68
2024/01/03 02:51:30;;;;;;;;;;;;;;;19.29;49.88;98312.47;2062335;28;2131;-68
2024/01/03 02:52:34;;;;;;;;;;;;;;;19.30;49.91;98311.03;2058275;28;2145;-68
2024/01/03 02:53:37;;;;;;;;;;;;;;;19.31;49.99;98306.00;2057640;28;2333;-68
2024/01/03 02:54:38;;;;;;;;;;;;;;;19.30;49.84;98301.72;2059012;28;2273;-68
2024/01/03 02:55:39;;;;;;;;;;;;;;;19.30;49.96;98310.31;2063518;28;2183;-68
2024/01/03 02:56:41;;;;;;;;;;;;;;;19.29;49.90;98309.59;2060156;28;2259;-68
2024/01/03 02:57:42;;;;;;;;;;;;;;;19.30;49.75;98310.31;2062169;28;2293;-68
2024/01/03 02:58:44;;;;;;;;;;;;;;;19.31;49.90;98306.00;2061019;28;2015;-68
2024/01/03 02:59:45;;;;;;;;;;;;;;;19.30;49.93;98310.31;2059749;28;2150;-68
2024/01/03 03:00:46;;;;;;;;;;;;;;;19.29;49.79;98306.72;2058770;28;6157;-68
2024/01/03 03:01:48;;;;;;;;;;;;;;;19.28;49.84;98307.44;2060519;28;1873;-68
2024/01/03 03:02:49;;;;;;;;;;;;;;;19.29;49.84;98317.47;2063359;28;1897;-68
2024/01/03 03:03:51;;;;;;;;;;;;;;;19.28;49.91;98313.88;2059310;28;2190;-68
2024/01/03 03:04:52;;;;;;;;;;;;;;;19.29;49.79;98308.84;2061336;28;2299;-68
2024/01/03 03:05:54;;;;;;;;;;;;;;;19.28;49.90;98301.69;2059090;28;2322;-68
2024/01/03 03:06:55;;;;;;;;;;;;;;;19.28;49.86;98299.53;2059469;28;2322;-68
2024/01/03 03:07:57;;;;;;;;;;;;;;;19.29;49.86;98306.00;2059977;28;1598;-68
2024/01/03 03:08:58;;;;;;;;;;;;;;;19.29;49.82;98311.72;2058758;28;2180;-68
2024/01/03 03:10:16;;;;;;;;;;;;;;;19.28;49.90;98298.81;2060472;28;2221;-68
2024/01/03 03:11:17;;;;;;;;;;;;;;;19.27;49.88;98308.88;2063497;28;1749;-68
2024/01/03 03:12:18;;;;;;;;;;;;;;;19.28;49.76;98302.41;2058851;28;1903;-67
2024/01/03 03:13:20;;;;;;;;;;;;;;;19.27;49.91;98312.44;2064300;28;2253;-67
2024/01/03 03:14:22;;;;;;;;;;;;;;;19.28;49.79;98308.16;2058194;28;2533;-68
2024/01/03 03:15:23;;;;;;;;;;;;;;;19.27;49.80;98315.31;2060409;28;2224;-68
2024/01/03 03:16:25;;;;;;;;;;;;;;;19.27;49.83;98318.19;2061936;28;1607;-68
2024/01/03 03:17:27;;;;;;;;;;;;;;;19.27;49.89;98318.19;2058936;28;2210;-68
2024/01/03 03:18:29;;;;;;;;;;;;;;;19.27;49.90;98300.97;2059550;28;1857;-67
2024/01/03 03:19:30;;;;;;;;;;;;;;;19.26;49.82;98311.00;2060845;28;2244;-67
2024/01/03 03:20:32;;;;;;;;;;;;;;;19.25;49.87;98313.13;2059028;28;2565;-68
2024/01/03 03:21:34;;;;;;;;;;;;;;;19.26;49.73;98316.72;2060646;28;2379;-68
2024/01/03 03:22:35;;;;;;;;;;;;;;;19.25;49.83;98310.28;2062501;28;1679;-67
2024/01/03 03:23:36;;;;;;;;;;;;;;;19.27;49.70;98317.47;2058979;28;2060;-67
2024/01/03 03:24:38;;;;;;;;;;;;;;;19.27;49.75;98311.72;2064583;28;1944;-68
2024/01/03 03:25:39;;;;;;;;;;;;;;;19.25;49.94;98313.13;2057290;28;2234;-67
2024/01/03 03:26:41;;;;;;;;;;;;;;;19.25;49.84;98316.00;2056506;28;1966;-68
2024/01/03 03:27:42;;;;;;;;;;;;;;;19.25;49.83;98310.28;2059426;28;2167;-68
2024/01/03 03:28:43;;;;;;;;;;;;;;;19.25;49.80;98307.41;2062436;28;2534;-68
2024/01/03 03:29:45;;;;;;;;;;;;;;;19.25;49.87;98318.88;2058572;28;1846;-68
2024/01/03 03:30:46;;;;;;;;;;;;;;;19.25;49.88;98321.03;2058151;28;6153;-67
2024/01/03 03:31:48;;;;;;;;;;;;;;;19.25;49.86;98307.41;2060016;28;2259;-68
2024/01/03 03:32:49;;;;;;;;;;;;;;;19.25;49.75;98318.88;2064427;28;1914;-67
2024/01/03 03:33:51;;;;;;;;;;;;;;;19.25;49.76;98316.00;2060289;28;2271;-67
2024/01/03 03:34:53;;;;;;;;;;;;;;;19.25;49.77;98318.88;2062244;28;2123;-67
2024/01/03 03:35:54;;;;;;;;;;;;;;;19.25;49.80;98313.13;2060607;28;2596;-67
2024/01/03 03:36:56;;;;;;;;;;;;;;;19.24;49.78;98317.44;2056790;28;2454;-68
2024/01/03 03:37:57;;;;;;;;;;;;;;;19.25;49.86;98306.69;2056814;28;2412;-67
2024/01/03 03:38:59;;;;;;;;;;;;;;;19.24;49.75;98308.84;2063885;28;2243;-68
2024/01/03 03:40:00;;;;;;;;;;;;;;;19.24;49.83;98323.19;2061316;28;2199;-68
2024/01/03 03:41:01;;;;;;;;;;;;;;;19.25;49.80;98316.00;2061176;28;2248;-68
2024/01/03 03:42:03;;;;;;;;;;;;;;;19.24;49.78;98317.44;2062162;28;1723;-67
2024/01/03 03:43:04;;;;;;;;;;;;;;;19.25;49.79;98316.00;2060090;28;1604;-67
2024/01/03 03:44:06;;;;;;;;;;;;;;;19.25;49.65;98310.28;2059671;28;1652;-67
2024/01/03 03:45:07;;;;;;;;;;;;;;;19.25;49.72;98315.28;2058298;28;2407;-67
2024/01/03 03:46:10;;;;;;;;;;;;;;;19.24;49.73;98308.84;2058372;28;2490;-67
2024/01/03 03:47:11;;;;;;;;;;;;;;;19.23;49.72;98313.13;2058278;28;2224;-68
2024/01/03 03:48:13;;;;;;;;;;;;;;;19.25;49.75;98316.00;2058484;28;1627;-68
2024/01/03 03:49:15;;;;;;;;;;;;;;;19.26;49.70;98316.72;2058090;28;2286;-67
2024/01/03 03:50:17;;;;;;;;;;;;;;;19.26;49.58;98316.72;2057620;28;1647;-67
2024/01/03 03:51:18;;;;;;;;;;;;;;;19.27;49.61;98317.47;2061367;28;1665;-67
2024/01/03 03:52:19;;;;;;;;;;;;;;;19.28;49.55;98307.44;2060902;28;2017;-68
2024/01/03 03:53:21;;;;;;;;;;;;;;;19.28;49.46;98313.88;2059680;28;2144;-67
2024/01/03 03:54:22;;;;;;;;;;;;;;;19.29;49.47;98315.34;2063079;28;2196;-68
2024/01/03 03:55:25;;;;;;;;;;;;;;;19.31;49.43;98311.75;2058497;28;1850;-68
2024/01/03 03:56:26;;;;;;;;;;;;;;;19.32;49.39;98318.94;2059202;28;1695;-68
2024/01/03 03:57:28;;;;;;;;;;;;;;;19.33;49.33;98317.50;2058669;28;2298;-68
2024/01/03 03:58:29;;;;;;;;;;;;;;;19.33;49.26;98314.66;2061760;28;2230;-67
2024/01/03 03:59:31;;;;;;;;;;;;;;;19.34;49.43;98313.22;2059578;28;2173;-67
2024/01/03 04:00:32;;;;;;;;;;;;;;;19.34;49.50;98322.56;2060989;28;5986;-67
2024/01/03 04:01:33;;;;;;;;;;;;;;;19.34;49.35;98313.22;2059813;28;2196;-68
2024/01/03 04:02:35;;;;;;;;;;;;;;;19.36;49.40;98313.25;2059512;28;2265;-68
2024/01/03 04:03:36;;;;;;;;;;;;;;;19.36;49.39;98316.13;2061135;28;2340;-68
2024/01/03 04:04:38;;;;;;;;;;;;;;;19.36;49.41;98307.53;2059853;28;2208;-67
2024/01/03 04:05:39;;;;;;;;;;;;;;;19.37;49.53;98314.69;2059770;28;1651;-68
2024/01/03 04:06:42;;;;;;;;;;;;;;;19.37;49.50;98312.53;2059979;28;2232;-67
2024/01/03 04:07:43;;;;;;;;;;;;;;;19.38;49.60;98305.38;2060692;28;2242;-68
2024/01/03 04:08:45;;;;;;;;;;;;;;;19.39;49.49;98300.38;2055716;28;2169;-67
2024/01/03 04:09:46;;;;;;;;;;;;;;;19.39;49.72;98294.63;2060881;28;1710;-67
2024/01/03 04:10:48;;;;;;;;;;;;;;;19.38;49.78;98305.38;2060017;28;2287;-67
2024/01/03 04:11:49;;;;;;;;;;;;;;;19.38;49.73;98304.69;2060939;28;2266;-67
2024/01/03 04:12:52;;;;;;;;;;;;;;;19.39;49.83;98306.09;2060451;28;1985;-68
2024/01/03 04:13:54;;;;;;;;;;;;;;;19.39;49.63;98306.09;2055103;28;1739;-68
2024/01/03 04:14:55;;;;;;;;;;;;;;;19.37;49.80;98309.66;2059295;28;1602;-67
2024/01/03 04:15:57;;;;;;;;;;;;;;;19.38;49.82;98310.41;2060155;28;2344;-68
2024/01/03 04:16:58;;;;;;;;;;;;;;;19.39;49.81;98297.50;2058040;28;1619;-67
2024/01/03 04:18:00;;;;;;;;;;;;;;;19.38;49.73;98293.91;2059359;28;2211;-68
2024/01/03 04:19:01;;;;;;;;;;;;;;;19.39;49.78;98311.84;2058438;28;2224;-67
2024/01/03 04:20:03;;;;;;;;;;;;;;;19.40;49.67;98307.53;2059743;28;1670;-68
2024/01/03 04:21:08;;;;;;;;;;;;;;;19.39;49.72;98303.94;2063507;28;2180;-67
2024/01/03 04:22:10;;;;;;;;;;;;;;;19.40;49.64;98308.28;2060927;28;2282;-67
2024/01/03 04:23:11;;;;;;;;;;;;;;;19.40;49.91;98311.16;2057316;28;1678;-67
2024/01/03 04:24:13;;;;;;;;;;;;;;;19.42;49.98;98307.56;2056347;28;1869;-67
2024/01/03 04:25:14;;;;;;;;;;;;;;;19.42;49.82;98310.44;2060825;28;2328;-68
2024/01/03 04:26:16;;;;;;;;;;;;;;;19.43;49.85;98314.75;2061701;28;1725;-67
2024/01/03 04:27:18;;;;;;;;;;;;;;;19.43;49.86;98309.72;2057622;28;2321;-67
2024/01/03 04:28:19;;;;;;;;;;;;;;;19.44;50.01;98313.31;2061186;28;2230;-69
2024/01/03 04:29:20;;;;;;;;;;;;;;;19.45;50.14;98314.78;2060321;28;1655;-67
2024/01/03 04:30:22;;;;;;;;;;;;;;;19.44;50.03;98314.03;2055944;28;6346;-67
2024/01/03 04:31:24;;;;;;;;;;;;;;;19.44;50.04;98313.31;2061894;28;2183;-68
2024/01/03 04:32:25;;;;;;;;;;;;;;;19.45;50.11;98320.53;2062400;28;2449;-67
2024/01/03 04:33:27;;;;;;;;;;;;;;;19.45;50.37;98321.22;2058160;28;2126;-68
2024/01/03 04:34:28;;;;;;;;;;;;;;;19.46;50.18;98327.69;2060557;28;2230;-67
2024/01/03 04:35:30;;;;;;;;;;;;;;;19.45;50.18;98332.00;2059432;28;2180;-68
2024/01/03 04:36:31;;;;;;;;;;;;;;;19.45;50.31;98332.72;2060609;28;1988;-67
2024/01/03 04:37:34;;;;;;;;;;;;;;;19.45;50.20;98332.72;2059450;28;2299;-67
2024/01/03 04:38:35;;;;;;;;;;;;;;;19.45;50.09;98326.97;2057991;28;2154;-68
2024/01/03 04:39:36;;;;;;;;;;;;;;;19.46;50.06;98333.44;2058229;28;2161;-67
2024/01/03 04:40:38;;;;;;;;;;;;;;;19.45;49.98;98326.97;2060220;28;2213;-67
2024/01/03 04:41:40;;;;;;;;;;;;;;;19.46;50.02;98339.16;2061780;28;2518;-67
2024/01/03 04:42:41;;;;;;;;;;;;;;;19.45;50.17;98332.72;2057561;28;2169;-68
2024/01/03 04:43:43;;;;;;;;;;;;;;;19.46;50.00;98339.16;2059576;28;2351;-67
2024/01/03 04:44:44;;;;;;;;;;;;;;;19.46;50.07;98344.91;2057768;28;2220;-67
2024/01/03 04:45:47;;;;;;;;;;;;;;;19.46;50.11;98344.91;2057875;28;2239;-67
2024/01/03 04:46:49;;;;;;;;;;;;;;;19.46;50.05;98350.66;2061127;28;2400;-68
2024/01/03 04:47:51;;;;;;;;;;;;;;;19.45;50.07;98347.06;2057745;28;2283;-67
2024/01/03 04:48:52;;;;;;;;;;;;;;;19.46;50.04;98367.88;2057148;28;2058;-67
2024/01/03 04:49:54;;;;;;;;;;;;;;;19.46;50.24;98339.88;2059111;28;1857;-67
2024/01/03 04:50:55;;;;;;;;;;;;;;;19.46;50.14;98345.63;2057670;28;2188;-67
2024/01/03 04:51:57;;;;;;;;;;;;;;;19.46;50.10;98344.91;2058442;28;1618;-67
2024/01/03 04:52:59;;;;;;;;;;;;;;;19.48;50.20;98347.09;2057192;28;1915;-67
2024/01/03 04:54:00;;;;;;;;;;;;;;;19.46;50.08;98351.38;2060902;28;2548;-67
2024/01/03 04:55:02;;;;;;;;;;;;;;;19.47;50.21;98346.38;2062291;28;2208;-67
2024/01/03 04:56:04;;;;;;;;;;;;;;;19.48;50.17;98341.34;2058238;28;2255;-68
2024/01/03 04:57:05;;;;;;;;;;;;;;;19.48;50.22;98350.66;2059194;28;2594;-67
2024/01/03 04:58:07;;;;;;;;;;;;;;;19.46;50.16;98344.91;2059889;28;1910;-67
2024/01/03 04:59:09;;;;;;;;;;;;;;;19.48;50.17;98342.06;2056846;28;2264;-67
2024/01/03 05:00:11;;;;;;;;;;;;;;;19.49;50.23;98343.50;2060733;28;6169;-67
2024/01/03 05:01:12;;;;;;;;;;;;;;;19.49;50.54;98349.22;2060865;28;2121;-67
2024/01/03 05:02:13;;;;;;;;;;;;;;;19.49;50.28;98343.50;2060192;28;2125;-66
2024/01/03 05:03:16;;;;;;;;;;;;;;;19.50;50.35;98344.25;2060762;28;2289;-67
2024/01/03 05:04:17;;;;;;;;;;;;;;;19.50;50.29;98356.44;2058455;28;2323;-67
2024/01/03 05:05:19;;;;;;;;;;;;;;;19.51;50.23;98352.13;2061866;28;2200;-72
2024/01/03 05:06:20;;;;;;;;;;;;;;;19.52;50.24;98352.88;2063048;28;1587;-66
2024/01/03 05:07:22;;;;;;;;;;;;;;;19.51;50.33;98345.66;2060053;28;2475;-67
2024/01/03 05:08:24;;;;;;;;;;;;;;;19.52;50.31;98353.59;2060388;28;2263;-66
2024/01/03 05:09:25;;;;;;;;;;;;;;;19.52;50.20;98344.97;2062543;28;2297;-66
2024/01/03 05:10:27;;;;;;;;;;;;;;;19.53;50.32;98345.69;2060690;28;1990;-66
2024/01/03 05:11:28;;;;;;;;;;;;;;;19.53;50.26;98354.31;2061696;28;1846;-66
2024/01/03 05:12:30;;;;;;;;;;;;;;;19.53;50.21;98360.75;2063409;28;1790;-66
2024/01/03 05:13:31;;;;;;;;;;;;;;;19.52;50.18;98350.72;2061678;28;2234;-67
2024/01/03 05:14:32;;;;;;;;;;;;;;;19.53;50.43;98348.56;2064852;28;1774;-66
2024/01/03 05:15:34;;;;;;;;;;;;;;;19.54;50.21;98358.59;2058616;28;2212;-67
2024/01/03 05:16:36;;;;;;;;;;;;;;;19.53;50.40;98357.19;2063493;28;1655;-66
2024/01/03 05:17:37;;;;;;;;;;;;;;;19.53;50.70;98355.03;2060001;28;1675;-66
2024/01/03 05:18:39;;;;;;;;;;;;;;;19.53;50.56;98365.78;2057784;28;1861;-66
2024/01/03 05:19:43;;;;;;;;;;;;;;;19.52;50.69;98359.31;2061807;28;2199;-65
2024/01/03 05:20:44;;;;;;;;;;;;;;;19.52;50.41;98353.59;2062096;28;1877;-66
2024/01/03 05:21:46;;;;;;;;;;;;;;;19.53;50.43;98351.44;2064196;28;2021;-66
2024/01/03 05:22:47;;;;;;;;;;;;;;;19.53;50.35;98360.03;2061610;28;1738;-67
2024/01/03 05:23:48;;;;;;;;;;;;;;;19.52;50.40;98352.88;2058119;28;2211;-66
2024/01/03 05:24:51;;;;;;;;;;;;;;;19.52;50.46;98358.63;2062523;28;1746;-66
2024/01/03 05:25:52;;;;;;;;;;;;;;;19.52;50.63;98356.47;2061763;28;2192;-66
2024/01/03 05:26:53;;;;;;;;;;;;;;;19.52;50.53;98353.59;2062149;28;1626;-67